Time;durP1;ratioP1;P1;durP2;ratioP2;P2;SDS_P1;SDS_P2;PMS_P1;PMS_P2;Temp;Humidity;BMP_temperature;BMP_pressure;BME280_temperature;BME280_humidity;BME280_pressure;Samples;Min_cycle;Max_cycle;Signal;HPM_P1;HPM_P2
2024/04/22 00:00:03;;;;;;;4.97;2.13;;;;;;;5.94;100.00;102313.97;6818523;26;19990;-80
2024/04/22 00:03:03;;;;;;;3.45;1.77;;;;;;;5.92;100.00;102306.19;6819503;26;20061;-79
2024/04/22 00:06:07;;;;;;;5.15;2.00;;;;;;;5.84;100.00;102308.81;6823439;26;19998;-80
2024/04/22 00:09:07;;;;;;;17.88;7.65;;;;;;;5.85;100.00;102312.28;6823071;26;19994;-80
2024/04/22 00:12:10;;;;;;;10.57;4.57;;;;;;;5.82;100.00;102310.59;6823278;26;20046;-79
2024/04/22 00:15:13;;;;;;;6.72;2.08;;;;;;;5.73;100.00;102305.44;6822807;26;20006;-79
2024/04/22 00:18:16;;;;;;;4.97;2.30;;;;;;;5.68;100.00;102303.72;6822603;26;20703;-80
2024/04/22 00:21:20;;;;;;;3.13;1.75;;;;;;;5.57;100.00;102303.81;6822818;26;20002;-78
2024/04/22 00:24:20;;;;;;;3.47;1.90;;;;;;;5.56;100.00;102307.31;6823302;26;20343;-79
2024/04/22 00:27:23;;;;;;;4.18;2.00;;;;;;;5.45;100.00;102303.91;6822548;26;19994;-79
2024/04/22 00:30:29;;;;;;;4.90;2.10;;;;;;;5.38;100.00;102317.88;6822628;26;20034;-80
2024/04/22 00:33:29;;;;;;;3.65;2.25;;;;;;;5.31;100.00;102312.72;6823027;26;20005;-80
2024/04/22 00:36:32;;;;;;;12.70;2.17;;;;;;;5.32;100.00;102308.34;6822651;26;20039;-79
2024/04/22 00:39:33;;;;;;;4.85;2.20;;;;;;;5.32;100.00;102306.63;6822536;26;20083;-80
2024/04/22 00:42:36;;;;;;;4.40;2.22;;;;;;;5.40;100.00;102311.75;6822448;26;19994;-79
2024/04/22 00:45:42;;;;;;;4.38;2.15;;;;;;;5.37;100.00;102309.19;6822828;26;19994;-80
2024/04/22 00:48:45;;;;;;;4.35;2.28;;;;;;;5.41;100.00;102303.06;6822171;26;20054;-80
2024/04/22 00:51:45;;;;;;;5.40;2.60;;;;;;;5.48;100.00;102307.34;6822265;26;20083;-79
2024/04/22 00:54:49;;;;;;;4.55;2.00;;;;;;;5.47;100.00;102305.63;6822447;26;20354;-80
2024/04/22 00:57:50;;;;;;;4.45;2.13;;;;;;;5.39;100.00;102304.81;6822126;26;19990;-79
2024/04/22 01:00:58;;;;;;;3.63;2.15;;;;;;;5.42;100.00;102311.75;6822481;26;20427;-79
2024/04/22 01:03:59;;;;;;;4.50;1.65;;;;;;;5.35;100.00;102311.78;6822412;26;20257;-80
2024/04/22 01:07:02;;;;;;;3.55;2.28;;;;;;;5.30;100.00;102312.69;6822029;26;20043;-80
2024/04/22 01:10:03;;;;;;;6.22;2.33;;;;;;;5.35;100.00;102316.13;6822444;26;20050;-79
2024/04/22 01:13:06;;;;;;;5.03;2.58;;;;;;;5.28;100.00;102314.47;6822142;26;19994;-79
2024/04/22 01:16:09;;;;;;;3.67;2.05;;;;;;;5.31;100.00;102312.72;6821865;26;20310;-78
2024/04/22 01:19:12;;;;;;;5.40;2.13;;;;;;;5.34;100.00;102311.81;6822211;26;19998;-79
2024/04/22 01:22:15;;;;;;;4.40;2.15;;;;;;;5.31;100.00;102304.00;6821979;26;20034;-81
2024/04/22 01:25:19;;;;;;;6.03;2.13;;;;;;;5.28;100.00;102309.25;6821726;26;20290;-81
2024/04/22 01:28:20;;;;;;;4.03;2.05;;;;;;;5.17;100.00;102304.06;6821412;26;20341;-78
2024/04/22 01:31:23;;;;;;;3.05;1.85;;;;;;;5.16;100.00;102299.75;6821371;26;20034;-80
2024/04/22 01:34:23;;;;;;;3.55;2.03;;;;;;;5.22;100.00;102310.16;6821186;26;19990;-80
2024/04/22 01:37:30;;;;;;;4.25;2.13;;;;;;;5.25;100.00;102306.66;6821238;26;20027;-81
2024/04/22 01:40:30;;;;;;;3.55;1.80;;;;;;;5.22;100.00;102306.66;6821341;26;20022;-80
2024/04/22 01:43:33;;;;;;;6.00;2.58;;;;;;;5.14;100.00;102304.13;6821224;26;20063;-80
2024/04/22 01:46:33;;;;;;;7.43;2.30;;;;;;;5.11;100.00;102304.13;6821361;26;20001;-80
2024/04/22 01:49:36;;;;;;;4.00;1.95;;;;;;;4.98;100.00;102292.91;6821018;26;19998;-80
2024/04/22 01:52:42;;;;;;;3.92;1.88;;;;;;;5.01;100.00;102294.63;6820913;26;20054;-80
2024/04/22 01:55:45;;;;;;;3.75;2.00;;;;;;;4.91;100.00;102286.00;6821438;26;19994;-80
2024/04/22 01:58:51;;;;;;;4.65;2.35;;;;;;;4.95;100.00;102286.84;6821231;26;20455;-80
2024/04/22 02:01:52;;;;;;;4.80;2.38;;;;;;;4.93;100.00;102276.44;6820834;26;20008;-80
2024/04/22 02:04:55;;;;;;;3.38;1.90;;;;;;;5.01;100.00;102282.47;6821255;26;19997;-78
2024/04/22 02:07:58;;;;;;;2.63;1.73;;;;;;;5.01;100.00;102287.69;6820847;26;20323;-81
2024/04/22 02:11:01;;;;;;;4.60;2.20;;;;;;;4.96;100.00;102279.03;6820912;26;20009;-80
2024/04/22 02:14:05;;;;;;;3.50;1.80;;;;;;;4.89;100.00;102279.91;6817351;26;19998;-80
2024/04/22 02:17:05;;;;;;;4.45;2.10;;;;;;;4.79;100.00;102273.91;6821034;26;19993;-80
2024/04/22 02:20:08;;;;;;;4.25;2.00;;;;;;;4.80;100.00;102282.56;6809892;21;20018;-79
2024/04/22 02:23:11;;;;;;;3.90;2.05;;;;;;;4.78;100.00;102277.38;6729219;26;20068;-79
2024/04/22 02:26:15;;;;;;;3.58;2.30;;;;;;;4.69;100.00;102284.38;6699945;26;20003;-79
2024/04/22 02:29:15;;;;;;;4.60;2.20;;;;;;;4.60;100.00;102277.47;6728753;26;20102;-79
2024/04/22 02:32:20;;;;;;;2.75;1.83;;;;;;;4.60;100.00;102280.06;6729980;26;19991;-79
2024/04/22 02:35:20;;;;;;;4.88;2.28;;;;;;;4.60;100.00;102281.81;6730134;26;19992;-79
2024/04/22 02:38:26;;;;;;;4.13;2.72;;;;;;;4.63;100.00;102281.78;6730231;26;20386;-79
2024/04/22 02:41:26;;;;;;;2.97;2.20;;;;;;;4.55;100.00;102281.81;6729574;26;20256;-79
2024/04/22 02:44:29;;;;;;;3.75;2.13;;;;;;;4.54;100.00;102283.56;6714890;26;20004;-79
2024/04/22 02:47:30;;;;;;;3.92;2.10;;;;;;;4.51;100.00;102287.91;6729764;26;20004;-80
2024/04/22 02:50:34;;;;;;;3.30;2.10;;;;;;;4.42;100.00;102280.13;6729766;26;20065;-79
2024/04/22 02:53:37;;;;;;;7.07;2.70;;;;;;;4.35;100.00;102273.19;6729550;26;20432;-79
2024/04/22 02:56:40;;;;;;;4.18;1.85;;;;;;;4.37;100.00;102274.09;6729910;26;20360;-79
2024/04/22 02:59:41;;;;;;;4.50;2.47;;;;;;;4.40;100.00;102280.13;6729488;26;19995;-79
2024/04/22 03:02:46;;;;;;;7.30;2.45;;;;;;;4.35;100.00;102275.81;6727369;26;20003;-79
2024/04/22 03:05:46;;;;;;;4.90;2.42;;;;;;;4.35;100.00;102275.81;6727791;26;19996;-81
2024/04/22 03:08:54;;;;;;;5.82;2.30;;;;;;;4.29;100.00;102263.69;6728806;26;20280;-79
2024/04/22 03:11:55;;;;;;;4.03;2.30;;;;;;;4.15;100.00;102284.53;6728152;26;20329;-79
2024/04/22 03:14:58;;;;;;;4.38;2.20;;;;;;;4.06;100.00;102277.59;6728336;26;19995;-79
2024/04/22 03:17:58;;;;;;;5.15;1.85;;;;;;;4.08;100.00;102283.66;6729217;26;20356;-79
2024/04/22 03:21:01;;;;;;;3.95;2.30;;;;;;;4.03;100.00;102276.75;6728629;26;20086;-79
2024/04/22 03:24:05;;;;;;;3.15;2.05;;;;;;;3.97;100.00;102277.63;6728366;26;20000;-79
2024/04/22 03:27:08;;;;;;;5.13;2.20;;;;;;;3.92;100.00;102271.56;6727785;26;20263;-79
2024/04/22 03:30:09;;;;;;;3.95;2.13;;;;;;;3.85;100.00;102269.81;6723750;26;19995;-79
2024/04/22 03:33:12;;;;;;;4.03;1.90;;;;;;;3.76;100.00;102277.63;6728336;26;20014;-79
2024/04/22 03:36:12;;;;;;;8.32;2.63;;;;;;;3.68;100.00;102269.84;6728945;26;19995;-79
2024/04/22 03:39:18;;;;;;;3.78;2.22;;;;;;;3.71;100.00;102269.84;6733356;26;19999;-79
2024/04/22 03:42:21;;;;;;;7.07;1.80;;;;;;;3.66;100.00;102265.50;6732862;26;20002;-79
2024/04/22 03:45:24;;;;;;;6.70;2.30;;;;;;;3.59;100.00;102269.88;6733198;26;20056;-80
2024/04/22 03:51:54;;;;;;;4.00;2.05;;;;;;;3.49;100.00;102263.78;6650343;26;20006;-79
2024/04/22 03:55:00;;;;;;;2.92;1.90;;;;;;;3.44;100.00;102264.63;6733247;26;20006;-79
2024/04/22 03:58:03;;;;;;;3.80;1.98;;;;;;;3.42;100.00;102259.44;6732765;26;19988;-79
2024/04/22 04:01:06;;;;;;;4.40;2.05;;;;;;;3.41;100.00;102260.31;6732720;26;19996;-79
2024/04/22 04:04:06;;;;;;;3.95;2.00;;;;;;;3.39;100.00;102259.44;6732556;26;20052;-79
2024/04/22 04:07:09;;;;;;;2.80;1.98;;;;;;;3.30;100.00;102264.63;6732711;26;19999;-79
2024/04/22 04:10:14;;;;;;;7.10;1.90;;;;;;;3.32;100.00;102270.72;6732570;26;20371;-80
2024/04/22 04:13:17;;;;;;;2.97;2.05;;;;;;;3.28;100.00;102266.38;6732785;26;20045;-80
2024/04/22 04:16:18;;;;;;;5.50;1.85;;;;;;;3.27;100.00;102272.41;6732544;26;20006;-79
2024/04/22 04:19:21;;;;;;;3.05;2.00;;;;;;;3.24;100.00;102269.81;6732765;26;20039;-79
2024/04/22 04:22:21;;;;;;;9.13;2.78;;;;;;;3.12;100.00;102272.41;6732654;26;20143;-79
2024/04/22 04:25:27;;;;;;;7.25;2.05;;;;;;;3.17;100.00;102268.94;6732534;26;20008;-79
2024/04/22 04:28:27;;;;;;;4.43;2.25;;;;;;;3.11;100.00;102274.13;6732238;26;20006;-80
2024/04/22 04:31:30;;;;;;;4.00;2.00;;;;;;;3.11;100.00;102268.94;6732197;26;19999;-79
2024/04/22 04:34:33;;;;;;;5.05;2.20;;;;;;;3.05;100.00;102269.78;6732302;26;20052;-80
2024/04/22 04:37:36;;;;;;;3.83;2.30;;;;;;;2.97;100.00;102266.31;6732571;26;20041;-81
2024/04/22 04:40:39;;;;;;;4.00;2.22;;;;;;;3.02;100.00;102269.78;6732064;26;20040;-80
2024/04/22 04:43:42;;;;;;;8.45;2.35;;;;;;;3.00;100.00;102270.66;6731917;26;20107;-79
2024/04/22 04:46:43;;;;;;;2.97;2.05;;;;;;;2.92;100.00;102264.56;6732384;26;19995;-79
2024/04/22 04:49:46;;;;;;;3.88;1.85;;;;;;;2.90;100.00;102276.66;6731532;26;20053;-79
2024/04/22 04:52:46;;;;;;;4.05;1.95;;;;;;;2.87;100.00;102261.97;6731781;26;20363;-80
2024/04/22 04:55:52;;;;;;;4.90;2.13;;;;;;;2.92;100.00;102269.75;6731779;26;20014;-80
2024/04/22 04:58:52;;;;;;;8.35;2.05;;;;;;;2.96;100.00;102274.09;6731881;26;20379;-79
2024/04/22 05:01:55;;;;;;;4.72;1.90;;;;;;;2.93;100.00;102271.50;6731947;26;20050;-79
2024/04/22 05:04:55;;;;;;;6.10;2.58;;;;;;;2.82;100.00;102268.88;6731834;26;20006;-79
2024/04/22 05:07:58;;;;;;;3.70;2.05;;;;;;;2.85;100.00;102270.59;6731496;26;20000;-79
2024/04/22 05:11:04;;;;;;;4.40;2.20;;;;;;;2.90;100.00;102272.34;6731530;26;20003;-79
2024/04/22 05:14:07;;;;;;;3.92;1.80;;;;;;;2.92;100.00;102277.56;6731465;26;20027;-80
2024/04/22 05:17:08;;;;;;;4.07;2.20;;;;;;;2.93;100.00;102277.53;6731870;26;20056;-80
2024/04/22 05:20:11;;;;;;;4.93;2.47;;;;;;;2.93;100.00;102268.91;6731421;26;19995;-79
2024/04/22 05:23:12;;;;;;;5.22;2.20;;;;;;;3.01;100.00;102277.56;6731220;26;20061;-79
2024/04/22 05:26:17;;;;;;;2.45;1.65;;;;;;;3.10;100.00;102275.00;6730501;26;20003;-79
2024/04/22 05:29:18;;;;;;;11.68;2.47;;;;;;;3.14;100.00;102274.16;6730502;26;19995;-79
2024/04/22 05:32:21;;;;;;;3.95;2.63;;;;;;;3.29;100.00;102273.28;6731116;26;20436;-79
2024/04/22 05:38:44;;;;;;;6.15;2.83;;;;;;;3.36;100.00;102271.56;6731713;26;19995;-80
2024/04/22 05:41:50;;;;;;;5.57;2.58;;;;;;;3.42;100.00;102281.97;6730510;26;20039;-80
2024/04/22 05:44:53;;;;;;;5.20;2.20;;;;;;;3.47;100.00;102277.66;6731586;26;20313;-80
2024/04/22 05:47:56;;;;;;;6.28;2.30;;;;;;;3.51;100.00;102272.44;6731054;26;20375;-79
2024/04/22 05:50:59;;;;;;;8.02;3.00;;;;;;;3.52;100.00;102278.50;6731257;26;20368;-80
2024/04/22 05:54:02;;;;;;;6.10;2.72;;;;;;;3.53;100.00;102270.69;6730770;26;20007;-79
2024/04/22 05:57:05;;;;;;;5.05;2.42;;;;;;;3.60;100.00;102276.78;6730991;26;20255;-80
2024/04/22 06:00:10;;;;;;;5.35;2.47;;;;;;;3.60;100.00;102270.72;6729912;26;20391;-81
2024/04/22 06:03:10;;;;;;;2.28;1.38;;;;;;;3.66;100.00;102268.97;6730328;26;19995;-79
2024/04/22 06:06:13;;;;;;;3.85;1.80;;;;;;;3.74;100.00;102274.19;6730274;26;20041;-79
2024/04/22 06:09:14;;;;;;;3.60;1.95;;;;;;;3.73;100.00;102265.53;6730668;26;20036;-79
2024/04/22 06:12:19;;;;;;;5.65;1.85;;;;;;;3.82;100.00;102264.66;6730384;26;20310;-80
2024/04/22 06:15:19;;;;;;;4.90;1.90;;;;;;;3.83;100.00;102262.91;6730824;26;20309;-79
2024/04/22 06:18:22;;;;;;;6.18;1.65;;;;;;;3.77;100.00;102253.34;6730809;26;19991;-79
2024/04/22 06:21:23;;;;;;;8.52;2.35;;;;;;;3.84;100.00;102260.31;6729968;26;19991;-79
2024/04/22 06:24:26;;;;;;;3.00;1.63;;;;;;;3.88;100.00;102245.56;6730219;26;20072;-79
2024/04/22 06:27:29;;;;;;;3.45;2.13;;;;;;;4.06;100.00;102246.41;6730487;26;19996;-79
2024/04/22 06:30:32;;;;;;;4.07;1.67;;;;;;;4.18;100.00;102252.41;6729174;26;20011;-79
2024/04/22 06:33:33;;;;;;;2.55;1.52;;;;;;;4.20;100.00;102245.50;6722088;26;20015;-79
2024/04/22 06:36:36;;;;;;;7.25;1.67;;;;;;;4.32;100.00;102250.69;6722699;26;20031;-79
2024/04/22 06:39:36;;;;;;;3.05;2.00;;;;;;;4.26;100.00;102255.88;6730490;26;20063;-79
2024/04/22 06:42:42;;;;;;;2.80;1.67;;;;;;;4.35;100.00;102257.59;6729363;26;20023;-79
2024/04/22 06:45:45;;;;;;;4.90;1.30;;;;;;;4.57;100.00;102254.03;6724763;26;20000;-79
2024/04/22 06:48:48;;;;;;;4.80;1.60;;;;;;;4.74;100.00;102252.22;6730014;26;20069;-79
2024/04/22 06:51:48;;;;;;;2.65;1.63;;;;;;;4.87;100.00;102252.16;6730008;26;20432;-79
2024/04/22 06:54:51;;;;;;;6.32;1.33;;;;;;;4.88;100.00;102241.72;6729933;26;20000;-79
2024/04/22 06:57:54;;;;;;;2.83;1.63;;;;;;;5.00;98.49;102239.06;6715877;26;20039;-79
2024/04/22 07:00:57;;;;;;;6.05;1.45;;;;;;;5.07;96.82;102238.13;6729431;26;20078;-79
2024/04/22 07:03:58;;;;;;;4.90;1.58;;;;;;;5.10;93.75;102237.25;6729456;26;19996;-79
2024/04/22 07:07:01;;;;;;;1.73;1.10;;;;;;;5.16;89.59;102241.56;6729472;26;20018;-79
2024/04/22 07:10:01;;;;;;;2.45;1.20;;;;;;;5.19;88.91;102238.94;6729332;26;19999;-79
2024/04/22 07:13:07;;;;;;;1.65;1.05;;;;;;;5.24;84.55;102229.34;6731275;26;20417;-79
2024/04/22 07:16:10;;;;;;;4.07;1.27;;;;;;;5.24;82.72;102234.56;6718508;26;20068;-79
2024/04/22 07:19:11;;;;;;;1.55;0.70;;;;;;;5.37;83.02;102233.59;6733399;26;20004;-79
2024/04/22 07:22:14;;;;;;;3.47;1.35;;;;;;;5.39;85.26;102226.59;6731713;26;20386;-79
2024/04/22 07:25:16;;;;;;;7.05;1.42;;;;;;;5.48;83.09;102236.97;6732211;26;20325;-79
2024/04/22 07:28:22;;;;;;;1.00;0.82;;;;;;;5.53;82.37;102231.72;6726587;26;20259;-79
2024/04/22 07:31:23;;;;;;;2.90;0.98;;;;;;;5.57;80.28;102226.44;6733054;26;20009;-79
2024/04/22 07:34:27;;;;;;;1.70;0.85;;;;;;;5.67;79.97;102226.38;6733570;26;20288;-79
2024/04/22 07:37:30;;;;;;;1.65;0.70;;;;;;;5.79;78.06;102228.88;6733549;26;19995;-80
2024/04/22 07:40:33;;;;;;;1.52;0.90;;;;;;;5.83;78.59;102226.22;6733294;26;20256;-79
2024/04/22 07:43:36;;;;;;;2.17;1.02;;;;;;;5.75;75.70;102229.78;6731389;26;20245;-80
2024/04/22 07:46:41;;;;;;;3.05;1.25;;;;;;;5.71;72.38;102221.09;6732322;26;19995;-79
2024/04/22 07:49:42;;;;;;;1.33;0.75;;;;;;;5.80;73.23;102222.78;6728180;26;19996;-79
2024/04/22 07:52:45;;;;;;;0.82;0.70;;;;;;;5.89;72.87;102220.06;6727379;26;20031;-79
2024/04/22 07:55:46;;;;;;;4.05;1.20;;;;;;;5.95;70.98;102220.06;6733486;26;20263;-79
2024/04/22 07:58:52;;;;;;;4.32;1.35;;;;;;;5.96;69.23;102223.53;6731428;26;20050;-79
2024/04/22 08:01:53;;;;;;;0.52;0.52;;;;;;;6.03;69.07;102228.63;6723178;26;20059;-79
2024/04/22 08:04:57;;;;;;;1.35;0.80;;;;;;;6.12;70.27;102232.03;6730436;26;20381;-79
2024/04/22 08:07:59;;;;;;;1.75;1.00;;;;;;;6.16;71.45;102225.91;6718507;26;19999;-79
2024/04/22 08:11:02;;;;;;;2.13;1.02;;;;;;;6.17;70.27;102238.06;6731241;26;20011;-79
2024/04/22 08:14:05;;;;;;;1.33;1.05;;;;;;;6.22;70.45;102238.88;6731895;26;20000;-79
2024/04/22 08:17:08;;;;;;;1.52;1.10;;;;;;;6.19;70.55;102237.19;6725537;26;20003;-79
2024/04/22 08:20:11;;;;;;;2.97;1.13;;;;;;;6.26;70.48;102235.34;6757498;21;20027;-77
2024/04/22 08:23:12;;;;;;;2.03;1.05;;;;;;;6.12;66.08;102232.91;6776446;26;20652;-78
2024/04/22 08:26:15;;;;;;;3.00;1.00;;;;;;;6.25;66.16;102231.03;6777649;26;19998;-78
2024/04/22 08:29:18;;;;;;;2.55;1.05;;;;;;;6.28;65.08;102231.84;6773907;26;20251;-79
2024/04/22 08:32:21;;;;;;;4.28;0.93;;;;;;;6.25;63.93;102224.06;6732404;26;19999;-77
2024/04/22 08:35:24;;;;;;;2.95;0.90;;;;;;;6.28;65.58;102220.56;6704442;26;20019;-78
2024/04/22 08:38:25;;;;;;;1.63;0.80;;;;;;;6.16;62.11;102218.06;6732385;26;20079;-78
2024/04/22 08:41:28;;;;;;;3.33;1.02;;;;;;;6.31;63.05;102220.50;6697784;26;19996;-75
2024/04/22 08:44:33;;;;;;;1.25;0.73;;;;;;;6.47;66.00;102226.41;6716852;26;20603;-76
2024/04/22 08:47:37;;;;;;;1.38;0.88;;;;;;;6.45;63.93;102212.50;6726658;26;20306;-77
2024/04/22 08:50:38;;;;;;;1.77;0.98;;;;;;;6.48;63.49;102218.56;6723213;26;20076;-76
2024/04/22 08:53:41;;;;;;;5.57;1.05;;;;;;;6.64;62.43;102221.84;6723498;26;20069;-75
2024/04/22 08:56:42;;;;;;;3.28;0.95;;;;;;;6.73;64.15;102216.50;6715309;26;20000;-76
2024/04/22 08:59:47;;;;;;;1.88;0.90;;;;;;;6.85;59.65;102218.91;6730109;26;19999;-76
2024/04/22 09:02:48;;;;;;;2.17;0.80;;;;;;;6.80;54.37;102206.81;6730115;26;20008;-76
2024/04/22 09:05:51;;;;;;;2.42;1.10;;;;;;;6.79;56.34;102216.41;6729566;26;20069;-75
2024/04/22 09:08:52;;;;;;;2.92;0.70;;;;;;;6.82;58.67;102218.97;6730147;26;19995;-75
2024/04/22 09:11:55;;;;;;;2.13;1.23;;;;;;;6.99;59.26;102220.47;6731476;26;20360;-75
2024/04/22 09:15:01;;;;;;;2.97;1.33;;;;;;;7.12;59.30;102219.41;6732049;26;20288;-75
2024/04/22 09:18:04;;;;;;;2.83;1.00;;;;;;;7.12;55.19;102220.25;6731309;26;20000;-75
2024/04/22 09:21:05;;;;;;;1.70;0.90;;;;;;;7.16;54.77;102209.75;6731308;26;19992;-75
2024/04/22 09:24:09;;;;;;;2.40;1.08;;;;;;;7.23;53.25;102211.41;6731299;26;19999;-76
2024/04/22 09:27:10;;;;;;;0.95;0.70;;;;;;;7.25;52.53;102213.09;6731351;26;20015;-76
2024/04/22 09:30:17;;;;;;;1.23;0.90;;;;;;;7.35;51.79;102208.56;6733064;26;20006;-76
2024/04/22 09:33:24;;;;;;;7.03;1.02;;;;;;;7.38;54.26;102214.63;6731163;26;20018;-76
2024/04/22 09:36:26;;;;;;;4.25;0.88;;;;;;;7.53;49.51;102210.03;6731022;26;19996;-75
2024/04/22 09:39:30;;;;;;;4.53;1.30;;;;;;;7.57;49.19;102209.94;6731112;26;19999;-75
2024/04/22 09:42:30;;;;;;;1.92;1.10;;;;;;;7.62;50.64;102207.25;6730835;26;20006;-75
2024/04/22 09:45:38;;;;;;;1.92;0.90;;;;;;;7.80;49.88;102206.06;6731052;26;19995;-75
2024/04/22 09:48:41;;;;;;;1.25;0.80;;;;;;;7.83;45.70;102204.25;6731242;26;19999;-75
2024/04/22 09:51:47;;;;;;;2.42;1.00;;;;;;;7.88;48.10;102197.16;6728674;26;20282;-76
2024/04/22 09:54:50;;;;;;;1.27;0.95;;;;;;;7.86;48.22;102204.19;6716550;26;20317;-77
2024/04/22 09:57:58;;;;;;;10.15;0.88;;;;;;;7.82;45.97;102199.91;6723208;26;20003;-75
2024/04/22 10:01:05;;;;;;;3.83;1.33;;;;;;;7.85;44.33;102191.97;6717574;26;20022;-75
2024/04/22 10:04:10;;;;;;;1.88;1.00;;;;;;;7.85;43.99;102193.75;6722333;26;20011;-75
2024/04/22 10:07:10;;;;;;;5.78;1.27;;;;;;;7.79;44.30;102189.50;6715743;26;20011;-75
2024/04/22 10:10:14;;;;;;;1.58;1.02;;;;;;;7.82;43.28;102186.81;6718113;26;19999;-75
2024/04/22 10:13:14;;;;;;;3.10;1.13;;;;;;;7.67;45.35;102187.09;6717666;26;19995;-75
2024/04/22 10:16:20;;;;;;;5.13;1.10;;;;;;;7.54;44.95;102185.59;6715648;26;20061;-74
2024/04/22 10:19:20;;;;;;;4.20;1.00;;;;;;;7.83;44.57;102182.44;6730996;26;19991;-81
2024/04/22 10:22:31;;;;;;;2.70;1.30;;;;;;;8.12;45.23;102182.72;6730472;26;20069;-76
2024/04/22 10:25:33;;;;;;;1.67;1.00;;;;;;;8.37;41.40;102172.66;6730578;26;20252;-75
2024/04/22 10:28:36;;;;;;;2.92;1.23;;;;;;;8.39;46.41;102180.47;6706785;26;20323;-72
2024/04/22 10:31:41;;;;;;;1.67;0.95;;;;;;;8.44;46.98;102169.91;6709088;26;20014;-76
2024/04/22 10:34:45;;;;;;;1.52;0.93;;;;;;;8.59;46.88;102172.22;6705537;26;20019;-73
2024/04/22 10:37:45;;;;;;;3.63;0.85;;;;;;;8.59;46.86;102165.19;6716853;26;20003;-72
2024/04/22 10:40:48;;;;;;;1.25;0.90;;;;;;;8.80;43.72;102162.97;6715675;26;19999;-71
2024/04/22 10:43:52;;;;;;;2.13;1.10;;;;;;;8.91;43.02;102160.13;6704095;26;20015;-72
2024/04/22 10:46:55;;;;;;;1.60;0.93;;;;;;;8.49;43.69;102157.56;6686902;26;19992;-75
2024/04/22 10:49:58;;;;;;;2.40;1.20;;;;;;;8.58;43.85;102159.97;6697982;26;20012;-75
2024/04/22 10:53:01;;;;;;;1.23;0.80;;;;;;;8.58;44.08;102152.13;6702061;26;20068;-74
2024/04/22 10:56:04;;;;;;;4.80;1.05;;;;;;;8.70;44.00;102157.09;6685565;26;20065;-75
2024/04/22 10:59:05;;;;;;;1.35;1.00;;;;;;;8.70;44.08;102153.59;6685372;26;20062;-74
2024/04/22 11:02:12;;;;;;;2.55;0.93;;;;;;;8.48;44.34;102153.22;6712743;26;20368;-75
2024/04/22 11:05:12;;;;;;;4.90;1.00;;;;;;;8.47;44.03;102149.75;6716013;26;20007;-76
2024/04/22 11:08:18;;;;;;;1.15;1.00;;;;;;;8.46;45.69;102152.41;6714195;26;20061;-75
2024/04/22 11:11:18;;;;;;;4.03;1.08;;;;;;;8.47;44.92;102141.88;6722949;26;20004;-74
2024/04/22 11:14:21;;;;;;;1.98;1.08;;;;;;;8.45;43.01;102142.81;6710764;26;20082;-74
2024/04/22 11:17:25;;;;;;;2.00;0.90;;;;;;;8.59;43.44;102153.88;6710089;26;20314;-75
2024/04/22 11:20:28;;;;;;;4.57;1.00;;;;;;;8.64;43.43;102144.13;6692512;26;20000;-74
2024/04/22 11:23:31;;;;;;;1.15;0.90;;;;;;;8.59;44.28;102146.88;6698265;26;20008;-74
2024/04/22 11:26:32;;;;;;;2.85;0.88;;;;;;;8.63;44.22;102138.03;6705256;26;20008;-74
2024/04/22 11:29:36;;;;;;;1.55;1.02;;;;;;;8.77;45.07;102150.81;6700208;26;20404;-74
2024/04/22 11:32:39;;;;;;;3.53;1.48;;;;;;;8.79;45.37;102141.16;6684709;26;20001;-76
2024/04/22 11:35:42;;;;;;;2.08;1.08;;;;;;;8.85;45.22;102137.50;6712361;26;20263;-76
2024/04/22 11:38:43;;;;;;;2.40;1.00;;;;;;;8.94;45.37;102136.44;6711411;26;20000;-74
2024/04/22 11:41:46;;;;;;;4.43;1.20;;;;;;;9.25;46.71;102134.78;6705589;26;20018;-75
2024/04/22 11:44:49;;;;;;;1.58;0.90;;;;;;;9.57;42.91;102130.44;6728679;26;20252;-75
2024/04/22 11:47:54;;;;;;;3.35;1.17;;;;;;;9.32;44.39;102128.47;6728464;26;20007;-74
2024/04/22 11:50:55;;;;;;;2.88;1.20;;;;;;;9.57;42.53;102122.56;6728685;26;20264;-74
2024/04/22 11:53:58;;;;;;;1.33;0.98;;;;;;;9.84;44.63;102121.81;6711410;26;19997;-73
2024/04/22 11:57:02;;;;;;;1.48;1.05;;;;;;;10.04;41.12;102117.78;6720396;26;19996;-73
2024/04/22 12:00:07;;;;;;;1.58;1.00;;;;;;;10.14;44.87;102114.81;6715847;26;19995;-74
2024/04/22 12:03:10;;;;;;;1.90;1.40;;;;;;;10.25;42.26;102116.28;6717098;26;20005;-75
2024/04/22 12:06:13;;;;;;;1.42;0.73;;;;;;;10.50;42.91;102113.81;6688837;26;20271;-75
2024/04/22 12:09:13;;;;;;;4.63;1.23;;;;;;;10.98;44.30;102116.59;6688757;26;20042;-76
2024/04/22 12:12:16;;;;;;;2.90;0.90;;;;;;;11.65;36.83;102102.91;6709609;26;20003;-76
2024/04/22 12:15:18;;;;;;;0.82;0.73;;;;;;;12.16;38.82;102105.41;6712862;26;19996;-77
2024/04/22 12:18:24;;;;;;;9.07;1.30;;;;;;;12.62;38.57;102110.66;6717805;26;20015;-77
2024/04/22 12:21:24;;;;;;;1.75;1.08;;;;;;;12.62;37.21;102103.59;6732200;26;19992;-76
2024/04/22 12:24:27;;;;;;;1.08;0.82;;;;;;;11.91;42.11;102100.22;6728683;26;20018;-76
2024/04/22 12:27:28;;;;;;;2.80;1.08;;;;;;;11.42;39.75;102096.69;6721953;26;20382;-74
2024/04/22 12:30:31;;;;;;;2.25;1.13;;;;;;;11.27;38.69;102086.69;6732650;26;19999;-74
2024/04/22 12:33:34;;;;;;;2.95;1.30;;;;;;;10.74;38.53;102089.34;6732211;26;19996;-74
2024/04/22 12:36:37;;;;;;;1.00;0.98;;;;;;;10.23;42.85;102084.78;6732248;26;19988;-74
2024/04/22 12:39:37;;;;;;;1.90;1.30;;;;;;;10.07;44.48;102087.00;6703273;26;20023;-73
2024/04/22 12:42:40;;;;;;;2.33;1.27;;;;;;;10.10;42.34;102093.94;6711101;26;20004;-74
2024/04/22 12:45:41;;;;;;;1.55;1.00;;;;;;;10.00;43.55;102088.13;6717409;26;20007;-75
2024/04/22 12:52:06;;;;;;;1.88;1.02;;;;;;;9.59;45.81;102087.53;6720283;26;19997;-76
2024/04/22 12:55:09;;;;;;;7.25;1.50;;;;;;;9.50;48.20;102077.28;6731300;26;20003;-75
2024/04/22 12:58:13;;;;;;;1.33;0.85;;;;;;;9.44;46.16;102064.31;6731932;26;19996;-74
2024/04/22 13:01:16;;;;;;;11.85;1.17;;;;;;;10.28;50.79;102074.19;6731557;26;20052;-76
2024/04/22 13:04:22;;;;;;;2.90;1.33;;;;;;;11.26;44.27;102068.31;6717150;26;20000;-79
2024/04/22 13:07:25;;;;;;;5.68;1.33;;;;;;;12.15;43.80;102063.31;6731892;26;19999;-80
2024/04/22 13:10:28;;;;;;;1.67;1.10;;;;;;;12.99;38.66;102057.25;6731246;26;19997;-80
2024/04/22 13:13:31;;;;;;;1.73;1.17;;;;;;;13.36;37.03;102048.63;6731791;26;20000;-79
2024/04/22 13:16:34;;;;;;;5.00;0.93;;;;;;;12.77;38.44;102045.88;6730536;26;19999;-77
2024/04/22 13:19:39;;;;;;;1.83;1.00;;;;;;;12.82;35.99;102046.56;6713980;26;20000;-75
2024/04/22 13:22:40;;;;;;;1.73;1.00;;;;;;;13.33;35.04;102038.19;6723798;26;19995;-76
2024/04/22 13:25:43;;;;;;;1.92;1.00;;;;;;;13.54;34.64;102032.91;6716978;26;20014;-77
2024/04/22 13:28:43;;;;;;;2.75;1.80;;;;;;;13.50;33.38;102031.31;6731200;26;19992;-77
2024/04/22 13:31:46;;;;;;;1.45;1.13;;;;;;;13.68;34.98;102028.69;6731364;26;19996;-76
2024/04/22 13:34:49;;;;;;;2.90;0.90;;;;;;;14.35;35.13;102034.34;6731336;26;20000;-76
2024/04/22 13:37:52;;;;;;;1.30;0.90;;;;;;;14.11;38.93;102025.81;6731539;26;20006;-74
2024/04/22 13:40:53;;;;;;;1.27;0.85;;;;;;;14.21;41.78;102020.00;6720487;26;20265;-74
2024/04/22 13:43:56;;;;;;;1.65;0.90;;;;;;;13.96;39.98;102012.41;6697488;26;20012;-75
2024/04/22 13:46:59;;;;;;;1.45;0.98;;;;;;;14.62;37.36;102003.94;6689370;26;19996;-75
2024/04/22 13:50:04;;;;;;;1.65;1.23;;;;;;;13.83;36.79;102005.13;6719442;26;20252;-74
2024/04/22 13:53:07;;;;;;;0.80;0.70;;;;;;;12.40;40.44;102011.34;6695014;26;20045;-76
2024/04/22 13:56:08;;;;;;;1.73;1.08;;;;;;;12.10;41.43;102013.41;6686344;26;20396;-75
2024/04/22 13:59:11;;;;;;;2.92;0.90;;;;;;;11.74;41.26;102005.13;6707950;26;20008;-77
2024/04/22 14:02:12;;;;;;;3.83;1.50;;;;;;;11.36;45.40;102003.94;6706874;26;21040;-78
2024/04/22 14:05:17;;;;;;;2.17;1.13;;;;;;;11.01;47.54;102008.66;6716581;26;20031;-77
2024/04/22 14:08:20;;;;;;;2.10;0.85;;;;;;;10.69;46.75;101994.00;6714111;26;20018;-76
2024/04/22 14:11:21;;;;;;;5.65;0.82;;;;;;;10.70;46.33;102000.97;6722063;26;20010;-76
2024/04/22 14:14:24;;;;;;;2.08;1.30;;;;;;;10.56;44.60;102009.31;6713101;26;20009;-76
2024/04/22 14:17:24;;;;;;;3.65;1.15;;;;;;;10.48;42.10;102002.59;6715657;26;20000;-75
2024/04/22 14:20:30;;;;;;;5.25;1.50;;;;;;;10.41;44.22;102009.81;6726512;26;20003;-77
2024/04/22 14:23:31;;;;;;;2.28;1.30;;;;;;;10.20;42.02;102003.44;6689996;26;19992;-79